< < Back
Terminal Aerodrome Forecast


Current Version              Previous Versions:   1  2  3  4  5  6  7  8  9  

Terminal Aerodrome Forecast

762
FTUS44 KMOB 201100 RRA
TAFPNS
TAF
KPNS 201144Z 2012/2112 00000KT P6SM FEW250
     FM202100 13007KT P6SM SCT250
     FM210900 00000KT P6SM BKN250=



Latest METAR

110
SAUS70 KWBC 202100 RRB
MTRPNS
METAR KPNS 202053Z 20007KT 10SM FEW035 18/06 A3022 RMK AO2 SLP236
T01780061 56016


USA.gov is the U.S. government's official web portal to all federal, state and local government web resources and services.